sensor_id;sensor_type;location;lat;lon;timestamp;pressure;altitude;pressure_sealevel;temperature;humidity
57000;BME280;42891;50.006;21.964;2023-04-08T00:01:37;99276.00;;;3.40;98.99
57000;BME280;42891;50.006;21.964;2023-04-08T00:05:38;99263.53;;;3.30;99.40
57000;BME280;42891;50.006;21.964;2023-04-08T00:09:38;99263.09;;;3.21;98.93
57000;BME280;42891;50.006;21.964;2023-04-08T00:13:39;99262.75;;;3.12;99.30
57000;BME280;42891;50.006;21.964;2023-04-08T00:17:40;99270.00;;;3.22;99.16
57000;BME280;42891;50.006;21.964;2023-04-08T00:21:40;99268.06;;;3.26;98.98
57000;BME280;42891;50.006;21.964;2023-04-08T00:25:41;99266.97;;;3.14;99.32
57000;BME280;42891;50.006;21.964;2023-04-08T00:29:41;99264.53;;;3.11;99.11
57000;BME280;42891;50.006;21.964;2023-04-08T00:33:41;99253.81;;;3.00;99.44
57000;BME280;42891;50.006;21.964;2023-04-08T00:37:43;99264.44;;;3.13;99.29
57000;BME280;42891;50.006;21.964;2023-04-08T00:41:43;99257.78;;;3.07;99.12
57000;BME280;42891;50.006;21.964;2023-04-08T00:45:43;99278.00;;;3.19;98.91
57000;BME280;42891;50.006;21.964;2023-04-08T00:49:44;99273.28;;;3.26;98.29
57000;BME280;42891;50.006;21.964;2023-04-08T00:53:44;99269.34;;;3.35;98.08
57000;BME280;42891;50.006;21.964;2023-04-08T00:57:45;99247.72;;;3.17;97.36
57000;BME280;42891;50.006;21.964;2023-04-08T01:07:12;99285.00;;;3.35;95.70
57000;BME280;42891;50.006;21.964;2023-04-08T01:10:53;99293.06;;;3.30;95.03
57000;BME280;42891;50.006;21.964;2023-04-08T01:15:04;99298.19;;;3.32;94.11
57000;BME280;42891;50.006;21.964;2023-04-08T01:19:07;99280.31;;;3.08;94.89
57000;BME280;42891;50.006;21.964;2023-04-08T01:23:24;99289.69;;;3.12;95.96
57000;BME280;42891;50.006;21.964;2023-04-08T01:27:29;99287.59;;;3.19;95.58
57000;BME280;42891;50.006;21.964;2023-04-08T01:31:31;99281.72;;;3.15;95.99
57000;BME280;42891;50.006;21.964;2023-04-08T01:35:32;99287.28;;;3.25;95.62
57000;BME280;42891;50.006;21.964;2023-04-08T01:39:34;99289.97;;;3.23;95.44
57000;BME280;42891;50.006;21.964;2023-04-08T01:43:35;99284.72;;;3.07;94.70
57000;BME280;42891;50.006;21.964;2023-04-08T01:47:38;99277.00;;;2.88;94.84
57000;BME280;42891;50.006;21.964;2023-04-08T01:51:39;99288.88;;;2.94;94.01
57000;BME280;42891;50.006;21.964;2023-04-08T01:55:41;99297.84;;;3.06;93.43
57000;BME280;42891;50.006;21.964;2023-04-08T01:59:42;99305.31;;;2.96;93.09
57000;BME280;42891;50.006;21.964;2023-04-08T02:03:45;99308.53;;;3.01;92.59
57000;BME280;42891;50.006;21.964;2023-04-08T02:07:47;99311.34;;;2.97;92.07
57000;BME280;42891;50.006;21.964;2023-04-08T02:11:47;99315.50;;;3.01;92.06
57000;BME280;42891;50.006;21.964;2023-04-08T02:15:54;99309.09;;;3.06;92.94
57000;BME280;42891;50.006;21.964;2023-04-08T02:24:07;99317.28;;;3.00;92.24
57000;BME280;42891;50.006;21.964;2023-04-08T02:28:10;99321.41;;;3.04;92.13
57000;BME280;42891;50.006;21.964;2023-04-08T02:32:11;99316.66;;;2.95;91.96
57000;BME280;42891;50.006;21.964;2023-04-08T02:36:14;99322.88;;;2.93;92.72
57000;BME280;42891;50.006;21.964;2023-04-08T02:40:28;99316.34;;;3.01;93.25
57000;BME280;42891;50.006;21.964;2023-04-08T02:44:28;99312.53;;;2.91;92.95
57000;BME280;42891;50.006;21.964;2023-04-08T02:48:29;99301.47;;;2.86;92.92
57000;BME280;42891;50.006;21.964;2023-04-08T02:52:30;99332.75;;;3.03;92.21
57000;BME280;42891;50.006;21.964;2023-04-08T02:56:30;99334.72;;;2.82;91.39
57000;BME280;42891;50.006;21.964;2023-04-08T03:00:30;99328.81;;;2.79;91.18
57000;BME280;42891;50.006;21.964;2023-04-08T03:04:31;99343.16;;;2.87;92.80
57000;BME280;42891;50.006;21.964;2023-04-08T03:08:31;99329.88;;;2.92;92.78
57000;BME280;42891;50.006;21.964;2023-04-08T03:12:32;99342.28;;;2.87;92.97
57000;BME280;42891;50.006;21.964;2023-04-08T03:16:33;99336.16;;;2.88;92.79
57000;BME280;42891;50.006;21.964;2023-04-08T03:20:33;99335.69;;;2.97;93.29
57000;BME280;42891;50.006;21.964;2023-04-08T03:24:34;99343.38;;;3.00;93.01
57000;BME280;42891;50.006;21.964;2023-04-08T03:28:34;99339.84;;;3.01;92.95
57000;BME280;42891;50.006;21.964;2023-04-08T03:32:35;99328.59;;;2.83;93.50
57000;BME280;42891;50.006;21.964;2023-04-08T03:36:35;99337.06;;;2.87;94.03
57000;BME280;42891;50.006;21.964;2023-04-08T03:40:35;99340.59;;;2.86;93.74
57000;BME280;42891;50.006;21.964;2023-04-08T03:44:36;99349.03;;;2.91;93.38
57000;BME280;42891;50.006;21.964;2023-04-08T03:48:36;99319.53;;;2.73;92.14
57000;BME280;42891;50.006;21.964;2023-04-08T03:52:36;99337.69;;;2.92;91.95
57000;BME280;42891;50.006;21.964;2023-04-08T03:56:37;99329.66;;;2.79;91.55
57000;BME280;42891;50.006;21.964;2023-04-08T04:00:37;99354.03;;;2.96;91.53
57000;BME280;42891;50.006;21.964;2023-04-08T04:04:37;99348.75;;;2.80;91.16
57000;BME280;42891;50.006;21.964;2023-04-08T04:08:38;99357.50;;;2.79;91.17
57000;BME280;42891;50.006;21.964;2023-04-08T04:12:38;99361.25;;;2.73;91.94
57000;BME280;42891;50.006;21.964;2023-04-08T04:16:38;99370.00;;;2.72;92.18
57000;BME280;42891;50.006;21.964;2023-04-08T04:20:40;99383.56;;;2.79;93.23
57000;BME280;42891;50.006;21.964;2023-04-08T04:24:45;99385.56;;;2.91;92.96
57000;BME280;42891;50.006;21.964;2023-04-08T04:28:46;99394.91;;;2.95;92.92
57000;BME280;42891;50.006;21.964;2023-04-08T04:32:46;99387.53;;;2.86;93.54
57000;BME280;42891;50.006;21.964;2023-04-08T04:36:46;99396.91;;;2.90;93.70
57000;BME280;42891;50.006;21.964;2023-04-08T04:40:47;99388.78;;;2.96;93.96
57000;BME280;42891;50.006;21.964;2023-04-08T04:44:47;99400.22;;;2.94;93.93
57000;BME280;42891;50.006;21.964;2023-04-08T04:48:48;99392.84;;;3.02;93.73
57000;BME280;42891;50.006;21.964;2023-04-08T04:52:48;99388.81;;;3.12;93.22
57000;BME280;42891;50.006;21.964;2023-04-08T04:56:49;99391.88;;;3.20;92.71
57000;BME280;42891;50.006;21.964;2023-04-08T05:00:49;99398.09;;;3.18;93.13
57000;BME280;42891;50.006;21.964;2023-04-08T05:04:50;99387.75;;;3.16;92.91
57000;BME280;42891;50.006;21.964;2023-04-08T05:08:52;99394.41;;;3.22;93.11
57000;BME280;42891;50.006;21.964;2023-04-08T05:12:53;99379.03;;;3.00;93.52
57000;BME280;42891;50.006;21.964;2023-04-08T05:16:53;99404.19;;;3.01;94.43
57000;BME280;42891;50.006;21.964;2023-04-08T05:20:53;99409.94;;;2.90;94.90
57000;BME280;42891;50.006;21.964;2023-04-08T05:24:53;99407.13;;;2.95;94.92
57000;BME280;42891;50.006;21.964;2023-04-08T05:28:54;99411.56;;;2.93;95.51
57000;BME280;42891;50.006;21.964;2023-04-08T05:32:55;99412.50;;;2.92;95.84
57000;BME280;42891;50.006;21.964;2023-04-08T05:36:55;99423.44;;;2.98;96.34
57000;BME280;42891;50.006;21.964;2023-04-08T05:40:55;99422.16;;;2.89;96.61
57000;BME280;42891;50.006;21.964;2023-04-08T05:44:56;99432.59;;;2.89;96.50
57000;BME280;42891;50.006;21.964;2023-04-08T05:48:56;99412.88;;;2.84;96.56
57000;BME280;42891;50.006;21.964;2023-04-08T05:52:56;99427.84;;;3.15;96.23
57000;BME280;42891;50.006;21.964;2023-04-08T05:56:56;99415.41;;;3.03;96.36
57000;BME280;42891;50.006;21.964;2023-04-08T06:00:57;99434.59;;;3.02;96.25
57000;BME280;42891;50.006;21.964;2023-04-08T06:04:57;99447.94;;;3.13;97.10
57000;BME280;42891;50.006;21.964;2023-04-08T06:09:01;99446.31;;;3.11;97.24
57000;BME280;42891;50.006;21.964;2023-04-08T06:13:01;99404.72;;;2.90;97.30
57000;BME280;42891;50.006;21.964;2023-04-08T06:17:01;99447.63;;;3.19;96.77
57000;BME280;42891;50.006;21.964;2023-04-08T06:21:02;99438.84;;;3.20;96.18
57000;BME280;42891;50.006;21.964;2023-04-08T06:25:03;99451.13;;;3.36;95.65
57000;BME280;42891;50.006;21.964;2023-04-08T06:29:03;99449.22;;;3.39;96.78
57000;BME280;42891;50.006;21.964;2023-04-08T06:33:04;99462.09;;;3.42;97.02
57000;BME280;42891;50.006;21.964;2023-04-08T06:37:04;99456.03;;;3.42;97.58
57000;BME280;42891;50.006;21.964;2023-04-08T06:41:05;99442.63;;;3.32;96.57
57000;BME280;42891;50.006;21.964;2023-04-08T06:45:06;99450.09;;;3.22;97.36
57000;BME280;42891;50.006;21.964;2023-04-08T06:49:07;99464.03;;;3.39;97.46
57000;BME280;42891;50.006;21.964;2023-04-08T06:53:07;99438.56;;;3.27;97.04
57000;BME280;42891;50.006;21.964;2023-04-08T06:57:10;99454.78;;;3.49;96.77
57000;BME280;42891;50.006;21.964;2023-04-08T07:01:10;99468.13;;;3.61;97.00
57000;BME280;42891;50.006;21.964;2023-04-08T07:05:11;99465.84;;;3.54;97.82
57000;BME280;42891;50.006;21.964;2023-04-08T07:09:11;99466.25;;;3.47;98.54
57000;BME280;42891;50.006;21.964;2023-04-08T07:13:12;99479.75;;;3.55;97.80
57000;BME280;42891;50.006;21.964;2023-04-08T07:17:12;99476.41;;;3.69;98.06
57000;BME280;42891;50.006;21.964;2023-04-08T07:21:12;99476.75;;;3.79;98.46
57000;BME280;42891;50.006;21.964;2023-04-08T07:25:13;99472.06;;;3.85;97.22
57000;BME280;42891;50.006;21.964;2023-04-08T07:29:13;99471.75;;;3.91;97.23
57000;BME280;42891;50.006;21.964;2023-04-08T07:33:13;99484.31;;;4.01;96.96
57000;BME280;42891;50.006;21.964;2023-04-08T07:37:15;99463.41;;;3.85;97.13
57000;BME280;42891;50.006;21.964;2023-04-08T07:41:15;99502.06;;;3.94;97.14
57000;BME280;42891;50.006;21.964;2023-04-08T07:45:15;99504.63;;;3.96;98.25
57000;BME280;42891;50.006;21.964;2023-04-08T07:49:16;99504.09;;;3.89;99.57
57000;BME280;42891;50.006;21.964;2023-04-08T07:53:16;99482.06;;;3.77;100.00
57000;BME280;42891;50.006;21.964;2023-04-08T07:57:16;99489.97;;;3.93;99.14
57000;BME280;42891;50.006;21.964;2023-04-08T08:01:21;99486.91;;;4.01;99.76
57000;BME280;42891;50.006;21.964;2023-04-08T08:05:22;99508.16;;;4.10;99.69
57000;BME280;42891;50.006;21.964;2023-04-08T08:09:22;99499.75;;;4.21;99.69
57000;BME280;42891;50.006;21.964;2023-04-08T08:13:23;99500.38;;;4.26;100.00
57000;BME280;42891;50.006;21.964;2023-04-08T08:17:24;99499.09;;;4.34;100.00
57000;BME280;42891;50.006;21.964;2023-04-08T08:21:24;99496.06;;;4.25;99.51
57000;BME280;42891;50.006;21.964;2023-04-08T08:25:25;99509.63;;;4.48;98.57
57000;BME280;42891;50.006;21.964;2023-04-08T08:29:26;99507.69;;;4.52;97.22
57000;BME280;42891;50.006;21.964;2023-04-08T08:33:26;99502.81;;;4.61;97.36
57000;BME280;42891;50.006;21.964;2023-04-08T08:37:26;99508.94;;;4.60;97.29
57000;BME280;42891;50.006;21.964;2023-04-08T08:41:32;99497.84;;;4.57;97.69
57000;BME280;42891;50.006;21.964;2023-04-08T08:45:32;99516.72;;;4.62;97.41
57000;BME280;42891;50.006;21.964;2023-04-08T08:49:33;99507.88;;;4.49;97.63
57000;BME280;42891;50.006;21.964;2023-04-08T08:53:34;99512.16;;;4.50;97.39
57000;BME280;42891;50.006;21.964;2023-04-08T08:57:35;99525.97;;;4.68;98.46
57000;BME280;42891;50.006;21.964;2023-04-08T09:01:37;99523.31;;;4.69;96.95
57000;BME280;42891;50.006;21.964;2023-04-08T09:05:53;99533.84;;;4.68;95.89
57000;BME280;42891;50.006;21.964;2023-04-08T09:09:54;99526.34;;;4.77;96.12
57000;BME280;42891;50.006;21.964;2023-04-08T09:13:56;99539.56;;;4.74;96.54
57000;BME280;42891;50.006;21.964;2023-04-08T09:17:56;99544.66;;;4.77;97.64
57000;BME280;42891;50.006;21.964;2023-04-08T09:22:09;99531.81;;;4.73;98.71
57000;BME280;42891;50.006;21.964;2023-04-08T09:26:16;99549.13;;;4.75;99.80
57000;BME280;42891;50.006;21.964;2023-04-08T09:30:17;99545.56;;;4.76;100.00
57000;BME280;42891;50.006;21.964;2023-04-08T09:34:17;99551.31;;;4.83;100.00
57000;BME280;42891;50.006;21.964;2023-04-08T09:38:19;99556.47;;;4.85;100.00
57000;BME280;42891;50.006;21.964;2023-04-08T09:42:20;99556.09;;;4.91;100.00
57000;BME280;42891;50.006;21.964;2023-04-08T09:50:50;99551.00;;;5.04;100.00
57000;BME280;42891;50.006;21.964;2023-04-08T09:55:02;99544.63;;;5.09;100.00
57000;BME280;42891;50.006;21.964;2023-04-08T09:59:10;99532.13;;;4.99;100.00
57000;BME280;42891;50.006;21.964;2023-04-08T10:03:26;99544.75;;;5.06;100.00
57000;BME280;42891;50.006;21.964;2023-04-08T10:07:27;99529.06;;;5.06;100.00
57000;BME280;42891;50.006;21.964;2023-04-08T10:11:29;99533.97;;;4.97;100.00
57000;BME280;42891;50.006;21.964;2023-04-08T10:15:31;99546.81;;;5.01;100.00
57000;BME280;42891;50.006;21.964;2023-04-08T10:19:36;99534.84;;;4.97;100.00
57000;BME280;42891;50.006;21.964;2023-04-08T10:23:56;99546.19;;;5.12;100.00
57000;BME280;42891;50.006;21.964;2023-04-08T10:32:39;99554.53;;;5.49;100.00
57000;BME280;42891;50.006;21.964;2023-04-08T10:36:40;99553.31;;;5.40;100.00
57000;BME280;42891;50.006;21.964;2023-04-08T10:40:42;99556.94;;;5.38;100.00
57000;BME280;42891;50.006;21.964;2023-04-08T10:44:43;99543.56;;;5.42;100.00
57000;BME280;42891;50.006;21.964;2023-04-08T10:48:58;99557.94;;;5.51;100.00
57000;BME280;42891;50.006;21.964;2023-04-08T10:53:00;99535.06;;;5.39;100.00
57000;BME280;42891;50.006;21.964;2023-04-08T10:57:00;99550.72;;;5.55;100.00
57000;BME280;42891;50.006;21.964;2023-04-08T11:01:05;99554.13;;;5.71;100.00
57000;BME280;42891;50.006;21.964;2023-04-08T11:05:09;99548.34;;;5.80;100.00
57000;BME280;42891;50.006;21.964;2023-04-08T11:09:10;99524.75;;;5.80;100.00
57000;BME280;42891;50.006;21.964;2023-04-08T11:13:10;99539.19;;;6.02;100.00
57000;BME280;42891;50.006;21.964;2023-04-08T11:17:14;99544.16;;;6.07;100.00
57000;BME280;42891;50.006;21.964;2023-04-08T11:21:15;99536.00;;;5.97;100.00
57000;BME280;42891;50.006;21.964;2023-04-08T11:25:16;99547.69;;;6.20;100.00
57000;BME280;42891;50.006;21.964;2023-04-08T11:29:17;99549.97;;;6.26;100.00
57000;BME280;42891;50.006;21.964;2023-04-08T11:33:17;99545.91;;;6.35;100.00
57000;BME280;42891;50.006;21.964;2023-04-08T11:37:18;99534.84;;;6.44;100.00
57000;BME280;42891;50.006;21.964;2023-04-08T11:41:18;99541.84;;;6.58;100.00
57000;BME280;42891;50.006;21.964;2023-04-08T11:45:19;99528.63;;;6.60;100.00
57000;BME280;42891;50.006;21.964;2023-04-08T11:49:20;99538.59;;;6.82;100.00
57000;BME280;42891;50.006;21.964;2023-04-08T11:53:24;99534.75;;;6.88;100.00
57000;BME280;42891;50.006;21.964;2023-04-08T11:57:27;99525.22;;;6.99;100.00
57000;BME280;42891;50.006;21.964;2023-04-08T12:01:29;99530.09;;;7.19;100.00
57000;BME280;42891;50.006;21.964;2023-04-08T12:05:29;99518.47;;;7.23;99.43
57000;BME280;42891;50.006;21.964;2023-04-08T12:09:30;99523.50;;;7.26;99.37
57000;BME280;42891;50.006;21.964;2023-04-08T12:13:30;99521.69;;;7.13;96.48
57000;BME280;42891;50.006;21.964;2023-04-08T12:17:30;99507.41;;;7.17;98.09
57000;BME280;42891;50.006;21.964;2023-04-08T12:21:31;99517.75;;;7.33;97.10
57000;BME280;42891;50.006;21.964;2023-04-08T12:25:33;99515.84;;;7.36;97.31
57000;BME280;42891;50.006;21.964;2023-04-08T12:29:34;99508.41;;;7.42;95.36
57000;BME280;42891;50.006;21.964;2023-04-08T12:33:34;99498.09;;;7.39;94.89
57000;BME280;42891;50.006;21.964;2023-04-08T12:37:35;99506.97;;;7.64;93.08
57000;BME280;42891;50.006;21.964;2023-04-08T12:41:35;99506.13;;;7.76;93.21
57000;BME280;42891;50.006;21.964;2023-04-08T12:45:36;99506.00;;;7.91;92.69
57000;BME280;42891;50.006;21.964;2023-04-08T12:49:37;99502.97;;;7.97;93.33
57000;BME280;42891;50.006;21.964;2023-04-08T12:53:37;99503.16;;;7.94;90.00
57000;BME280;42891;50.006;21.964;2023-04-08T12:57:37;99503.25;;;8.05;90.25
57000;BME280;42891;50.006;21.964;2023-04-08T13:01:38;99510.38;;;8.16;88.57
57000;BME280;42891;50.006;21.964;2023-04-08T13:05:38;99508.50;;;8.18;87.90
57000;BME280;42891;50.006;21.964;2023-04-08T13:09:38;99506.47;;;8.34;87.71
57000;BME280;42891;50.006;21.964;2023-04-08T13:13:38;99497.28;;;8.40;86.20
57000;BME280;42891;50.006;21.964;2023-04-08T13:17:39;99503.16;;;8.44;86.23
57000;BME280;42891;50.006;21.964;2023-04-08T13:21:39;99504.53;;;8.49;84.73
57000;BME280;42891;50.006;21.964;2023-04-08T13:25:39;99505.56;;;8.60;81.64
57000;BME280;42891;50.006;21.964;2023-04-08T13:29:40;99496.81;;;8.59;84.19
57000;BME280;42891;50.006;21.964;2023-04-08T13:33:40;99466.50;;;8.53;83.71
57000;BME280;42891;50.006;21.964;2023-04-08T13:37:41;99490.28;;;8.65;82.87
57000;BME280;42891;50.006;21.964;2023-04-08T13:41:41;99486.91;;;8.63;83.16
57000;BME280;42891;50.006;21.964;2023-04-08T13:45:41;99489.16;;;8.56;83.35
57000;BME280;42891;50.006;21.964;2023-04-08T13:49:42;99492.41;;;8.60;83.95
57000;BME280;42891;50.006;21.964;2023-04-08T13:53:43;99462.44;;;8.36;86.57
57000;BME280;42891;50.006;21.964;2023-04-08T13:57:43;99476.47;;;8.37;87.90
57000;BME280;42891;50.006;21.964;2023-04-08T14:01:43;99485.78;;;8.41;87.67
57000;BME280;42891;50.006;21.964;2023-04-08T14:05:44;99496.22;;;8.43;86.84
57000;BME280;42891;50.006;21.964;2023-04-08T14:09:44;99490.97;;;8.43;86.67
57000;BME280;42891;50.006;21.964;2023-04-08T14:13:45;99495.25;;;8.44;87.31
57000;BME280;42891;50.006;21.964;2023-04-08T14:17:45;99490.84;;;8.44;87.53
57000;BME280;42891;50.006;21.964;2023-04-08T14:21:46;99490.53;;;8.49;87.89
57000;BME280;42891;50.006;21.964;2023-04-08T14:25:46;99492.47;;;8.47;85.26
57000;BME280;42891;50.006;21.964;2023-04-08T14:29:47;99484.84;;;8.42;86.65
57000;BME280;42891;50.006;21.964;2023-04-08T14:33:47;99492.75;;;8.55;85.42
57000;BME280;42891;50.006;21.964;2023-04-08T14:37:47;99482.72;;;8.60;87.45
57000;BME280;42891;50.006;21.964;2023-04-08T14:41:48;99494.09;;;8.61;87.24
57000;BME280;42891;50.006;21.964;2023-04-08T14:45:49;99499.69;;;8.56;86.74
57000;BME280;42891;50.006;21.964;2023-04-08T14:49:50;99488.44;;;8.54;87.91
57000;BME280;42891;50.006;21.964;2023-04-08T14:53:50;99478.13;;;8.38;86.34
57000;BME280;42891;50.006;21.964;2023-04-08T14:57:51;99493.19;;;8.49;86.15
57000;BME280;42891;50.006;21.964;2023-04-08T15:01:51;99487.91;;;8.49;86.00
57000;BME280;42891;50.006;21.964;2023-04-08T15:05:51;99486.75;;;8.53;87.21
57000;BME280;42891;50.006;21.964;2023-04-08T15:09:52;99493.81;;;8.52;86.92
57000;BME280;42891;50.006;21.964;2023-04-08T15:13:53;99483.16;;;8.54;87.41
57000;BME280;42891;50.006;21.964;2023-04-08T15:17:53;99494.94;;;8.61;86.58
57000;BME280;42891;50.006;21.964;2023-04-08T15:21:54;99489.91;;;8.58;86.97
57000;BME280;42891;50.006;21.964;2023-04-08T15:25:55;99498.63;;;8.59;86.85
57000;BME280;42891;50.006;21.964;2023-04-08T15:29:56;99501.81;;;8.51;87.46
57000;BME280;42891;50.006;21.964;2023-04-08T15:33:57;99495.28;;;8.57;86.80
57000;BME280;42891;50.006;21.964;2023-04-08T15:37:57;99487.97;;;8.60;86.89
57000;BME280;42891;50.006;21.964;2023-04-08T15:41:58;99499.25;;;8.62;87.42
57000;BME280;42891;50.006;21.964;2023-04-08T15:45:58;99495.75;;;8.62;86.45
57000;BME280;42891;50.006;21.964;2023-04-08T15:49:58;99502.81;;;8.61;87.64
57000;BME280;42891;50.006;21.964;2023-04-08T15:53:59;99510.72;;;8.61;87.55
57000;BME280;42891;50.006;21.964;2023-04-08T15:58:00;99500.41;;;8.58;88.01
57000;BME280;42891;50.006;21.964;2023-04-08T16:02:00;99509.25;;;8.57;88.25
57000;BME280;42891;50.006;21.964;2023-04-08T16:06:01;99508.63;;;8.53;89.49
57000;BME280;42891;50.006;21.964;2023-04-08T16:10:01;99502.66;;;8.51;88.64
57000;BME280;42891;50.006;21.964;2023-04-08T16:14:02;99502.53;;;8.53;86.51
57000;BME280;42891;50.006;21.964;2023-04-08T16:18:07;99494.53;;;8.55;86.07
57000;BME280;42891;50.006;21.964;2023-04-08T16:22:07;99499.06;;;8.52;87.00
57000;BME280;42891;50.006;21.964;2023-04-08T16:26:07;99467.94;;;8.33;88.98
57000;BME280;42891;50.006;21.964;2023-04-08T16:30:08;99497.72;;;8.47;89.78
57000;BME280;42891;50.006;21.964;2023-04-08T16:34:09;99480.09;;;8.23;89.02
57000;BME280;42891;50.006;21.964;2023-04-08T16:38:09;99499.06;;;8.40;89.75
57000;BME280;42891;50.006;21.964;2023-04-08T16:42:10;99489.75;;;8.23;89.55
57000;BME280;42891;50.006;21.964;2023-04-08T16:46:16;99516.13;;;8.34;86.53
57000;BME280;42891;50.006;21.964;2023-04-08T16:50:17;99495.94;;;8.22;86.91
57000;BME280;42891;50.006;21.964;2023-04-08T16:54:18;99509.31;;;8.18;86.13
57000;BME280;42891;50.006;21.964;2023-04-08T16:58:18;99524.09;;;8.08;87.36
57000;BME280;42891;50.006;21.964;2023-04-08T17:02:18;99523.63;;;8.14;84.66
57000;BME280;42891;50.006;21.964;2023-04-08T17:06:20;99530.28;;;8.07;83.71
57000;BME280;42891;50.006;21.964;2023-04-08T17:10:23;99532.19;;;8.05;83.38
57000;BME280;42891;50.006;21.964;2023-04-08T17:14:24;99536.69;;;8.03;84.60
57000;BME280;42891;50.006;21.964;2023-04-08T17:18:26;99542.09;;;7.89;87.64
57000;BME280;42891;50.006;21.964;2023-04-08T17:22:26;99536.28;;;7.71;86.61
57000;BME280;42891;50.006;21.964;2023-04-08T17:26:27;99542.38;;;7.71;86.95
57000;BME280;42891;50.006;21.964;2023-04-08T17:30:27;99543.53;;;7.54;87.29
57000;BME280;42891;50.006;21.964;2023-04-08T17:34:27;99547.91;;;7.41;87.17
57000;BME280;42891;50.006;21.964;2023-04-08T17:38:30;99549.41;;;7.45;87.81
57000;BME280;42891;50.006;21.964;2023-04-08T17:42:31;99538.00;;;7.19;88.18
57000;BME280;42891;50.006;21.964;2023-04-08T17:46:31;99545.41;;;7.12;87.56
57000;BME280;42891;50.006;21.964;2023-04-08T17:50:32;99561.69;;;7.04;87.91
57000;BME280;42891;50.006;21.964;2023-04-08T17:54:32;99570.91;;;6.97;88.19
57000;BME280;42891;50.006;21.964;2023-04-08T17:58:33;99552.09;;;6.90;88.59
57000;BME280;42891;50.006;21.964;2023-04-08T18:02:34;99565.16;;;7.05;88.32
57000;BME280;42891;50.006;21.964;2023-04-08T18:06:35;99566.00;;;7.05;89.10
57000;BME280;42891;50.006;21.964;2023-04-08T18:10:36;99558.56;;;6.85;88.97
57000;BME280;42891;50.006;21.964;2023-04-08T18:14:37;99582.28;;;6.83;90.35
57000;BME280;42891;50.006;21.964;2023-04-08T18:18:42;99590.25;;;6.81;89.20
57000;BME280;42891;50.006;21.964;2023-04-08T18:22:43;99596.34;;;6.82;88.75
57000;BME280;42891;50.006;21.964;2023-04-08T18:26:43;99586.38;;;6.60;88.34
57000;BME280;42891;50.006;21.964;2023-04-08T18:30:49;99605.88;;;6.56;88.57
57000;BME280;42891;50.006;21.964;2023-04-08T18:34:50;99609.91;;;6.47;89.52
57000;BME280;42891;50.006;21.964;2023-04-08T18:38:51;99617.38;;;6.53;88.99
57000;BME280;42891;50.006;21.964;2023-04-08T18:42:51;99608.78;;;6.51;89.82
57000;BME280;42891;50.006;21.964;2023-04-08T18:46:52;99616.56;;;6.53;89.89
57000;BME280;42891;50.006;21.964;2023-04-08T18:50:52;99616.47;;;6.54;90.15
57000;BME280;42891;50.006;21.964;2023-04-08T18:54:53;99616.81;;;6.62;89.94
57000;BME280;42891;50.006;21.964;2023-04-08T18:58:53;99607.06;;;6.64;90.06
57000;BME280;42891;50.006;21.964;2023-04-08T19:02:54;99609.31;;;6.71;89.63
57000;BME280;42891;50.006;21.964;2023-04-08T19:06:55;99612.47;;;6.76;89.61
57000;BME280;42891;50.006;21.964;2023-04-08T19:10:55;99605.66;;;6.73;89.54
57000;BME280;42891;50.006;21.964;2023-04-08T19:14:56;99586.38;;;6.60;89.69
57000;BME280;42891;50.006;21.964;2023-04-08T19:18:56;99592.34;;;6.62;90.18
57000;BME280;42891;50.006;21.964;2023-04-08T19:22:57;99594.97;;;6.62;90.07
57000;BME280;42891;50.006;21.964;2023-04-08T19:26:57;99610.84;;;6.46;90.58
57000;BME280;42891;50.006;21.964;2023-04-08T19:30:58;99612.69;;;6.44;91.24
57000;BME280;42891;50.006;21.964;2023-04-08T19:34:58;99615.50;;;6.41;92.10
57000;BME280;42891;50.006;21.964;2023-04-08T19:38:59;99617.69;;;6.48;91.83
57000;BME280;42891;50.006;21.964;2023-04-08T19:43:00;99618.53;;;6.35;91.63
57000;BME280;42891;50.006;21.964;2023-04-08T19:47:00;99630.31;;;6.27;90.04
57000;BME280;42891;50.006;21.964;2023-04-08T19:51:01;99629.84;;;6.21;89.50
57000;BME280;42891;50.006;21.964;2023-04-08T19:55:02;99634.44;;;6.17;88.49
57000;BME280;42891;50.006;21.964;2023-04-08T19:59:06;99631.41;;;6.09;88.52
57000;BME280;42891;50.006;21.964;2023-04-08T20:03:06;99642.69;;;5.95;88.71
57000;BME280;42891;50.006;21.964;2023-04-08T20:07:07;99633.94;;;5.80;88.52
57000;BME280;42891;50.006;21.964;2023-04-08T20:11:07;99624.88;;;5.86;89.57
57000;BME280;42891;50.006;21.964;2023-04-08T20:15:08;99627.16;;;5.92;88.86
57000;BME280;42891;50.006;21.964;2023-04-08T20:19:11;99610.75;;;5.88;88.29
57000;BME280;42891;50.006;21.964;2023-04-08T20:23:11;99629.50;;;5.96;88.11
57000;BME280;42891;50.006;21.964;2023-04-08T20:27:13;99620.13;;;5.92;88.15
57000;BME280;42891;50.006;21.964;2023-04-08T20:31:13;99628.94;;;5.91;87.53
57000;BME280;42891;50.006;21.964;2023-04-08T20:35:15;99629.28;;;5.71;87.94
57000;BME280;42891;50.006;21.964;2023-04-08T20:39:15;99634.50;;;5.71;87.47
57000;BME280;42891;50.006;21.964;2023-04-08T20:43:16;99634.03;;;5.64;87.28
57000;BME280;42891;50.006;21.964;2023-04-08T20:47:16;99640.78;;;5.52;87.66
57000;BME280;42891;50.006;21.964;2023-04-08T20:51:16;99633.13;;;5.49;86.72
57000;BME280;42891;50.006;21.964;2023-04-08T20:55:17;99628.69;;;5.19;87.30
57000;BME280;42891;50.006;21.964;2023-04-08T20:59:17;99628.94;;;5.15;87.95
57000;BME280;42891;50.006;21.964;2023-04-08T21:03:18;99640.28;;;5.15;87.61
57000;BME280;42891;50.006;21.964;2023-04-08T21:07:18;99629.53;;;5.04;87.70
57000;BME280;42891;50.006;21.964;2023-04-08T21:11:18;99631.81;;;5.10;88.23
57000;BME280;42891;50.006;21.964;2023-04-08T21:15:19;99627.88;;;5.03;88.26
57000;BME280;42891;50.006;21.964;2023-04-08T21:19:19;99622.28;;;5.09;88.48
57000;BME280;42891;50.006;21.964;2023-04-08T21:23:19;99615.19;;;4.95;87.17
57000;BME280;42891;50.006;21.964;2023-04-08T21:27:20;99622.22;;;4.94;86.77
57000;BME280;42891;50.006;21.964;2023-04-08T21:31:20;99624.56;;;4.99;87.58
57000;BME280;42891;50.006;21.964;2023-04-08T21:35:21;99623.47;;;4.87;87.74